sensor_id;sensor_type;location;lat;lon;timestamp;P1;durP1;ratioP1;P2;durP2;ratioP2
40204;SDS011;26963;42.666;23.366;2023-02-28T00:00:19;17.98;;;13.60;;
40204;SDS011;26963;42.666;23.366;2023-02-28T00:02:45;19.95;;;13.65;;
40204;SDS011;26963;42.666;23.366;2023-02-28T00:05:12;21.73;;;14.82;;
40204;SDS011;26963;42.666;23.366;2023-02-28T00:07:39;21.00;;;16.40;;
40204;SDS011;26963;42.666;23.366;2023-02-28T00:10:05;22.23;;;16.85;;
40204;SDS011;26963;42.666;23.366;2023-02-28T00:12:33;20.58;;;16.02;;
40204;SDS011;26963;42.666;23.366;2023-02-28T00:14:59;20.27;;;16.58;;
40204;SDS011;26963;42.666;23.366;2023-02-28T00:17:25;20.80;;;15.23;;
40204;SDS011;26963;42.666;23.366;2023-02-28T00:19:51;22.10;;;15.88;;
40204;SDS011;26963;42.666;23.366;2023-02-28T00:22:18;19.40;;;15.70;;
40204;SDS011;26963;42.666;23.366;2023-02-28T00:24:45;19.30;;;14.88;;
40204;SDS011;26963;42.666;23.366;2023-02-28T00:27:12;18.50;;;13.93;;
40204;SDS011;26963;42.666;23.366;2023-02-28T00:29:37;19.60;;;14.70;;
40204;SDS011;26963;42.666;23.366;2023-02-28T00:32:03;18.52;;;12.63;;
40204;SDS011;26963;42.666;23.366;2023-02-28T00:34:30;20.88;;;14.57;;
40204;SDS011;26963;42.666;23.366;2023-02-28T00:36:55;18.92;;;15.13;;
40204;SDS011;26963;42.666;23.366;2023-02-28T00:39:21;18.60;;;13.90;;
40204;SDS011;26963;42.666;23.366;2023-02-28T00:41:48;20.70;;;15.52;;
40204;SDS011;26963;42.666;23.366;2023-02-28T00:44:14;23.20;;;15.10;;
40204;SDS011;26963;42.666;23.366;2023-02-28T00:46:39;19.98;;;14.70;;
40204;SDS011;26963;42.666;23.366;2023-02-28T00:49:05;23.05;;;15.07;;
40204;SDS011;26963;42.666;23.366;2023-02-28T00:51:31;18.80;;;15.02;;
40204;SDS011;26963;42.666;23.366;2023-02-28T00:53:59;20.70;;;16.33;;
40204;SDS011;26963;42.666;23.366;2023-02-28T00:56:24;21.73;;;16.38;;
40204;SDS011;26963;42.666;23.366;2023-02-28T00:58:50;23.95;;;17.20;;
40204;SDS011;26963;42.666;23.366;2023-02-28T01:01:15;25.80;;;17.48;;
40204;SDS011;26963;42.666;23.366;2023-02-28T01:03:41;24.15;;;16.48;;
40204;SDS011;26963;42.666;23.366;2023-02-28T01:06:07;25.50;;;18.65;;
40204;SDS011;26963;42.666;23.366;2023-02-28T01:08:32;25.70;;;19.10;;
40204;SDS011;26963;42.666;23.366;2023-02-28T01:10:58;24.90;;;18.75;;
40204;SDS011;26963;42.666;23.366;2023-02-28T01:13:32;21.67;;;17.05;;
40204;SDS011;26963;42.666;23.366;2023-02-28T01:15:58;23.13;;;18.05;;
40204;SDS011;26963;42.666;23.366;2023-02-28T01:18:24;21.73;;;17.27;;
40204;SDS011;26963;42.666;23.366;2023-02-28T01:20:49;22.25;;;17.38;;
40204;SDS011;26963;42.666;23.366;2023-02-28T01:23:17;23.95;;;18.17;;
40204;SDS011;26963;42.666;23.366;2023-02-28T01:25:44;22.58;;;17.95;;
40204;SDS011;26963;42.666;23.366;2023-02-28T01:28:10;28.20;;;18.27;;
40204;SDS011;26963;42.666;23.366;2023-02-28T01:30:36;22.98;;;18.83;;
40204;SDS011;26963;42.666;23.366;2023-02-28T01:33:01;22.63;;;17.92;;
40204;SDS011;26963;42.666;23.366;2023-02-28T01:35:27;22.90;;;18.35;;
40204;SDS011;26963;42.666;23.366;2023-02-28T01:37:52;23.83;;;18.50;;
40204;SDS011;26963;42.666;23.366;2023-02-28T01:40:18;22.23;;;17.52;;
40204;SDS011;26963;42.666;23.366;2023-02-28T01:42:43;21.80;;;18.10;;
40204;SDS011;26963;42.666;23.366;2023-02-28T01:45:20;22.42;;;18.33;;
40204;SDS011;26963;42.666;23.366;2023-02-28T01:47:51;25.42;;;19.33;;
40204;SDS011;26963;42.666;23.366;2023-02-28T01:50:20;28.20;;;19.35;;
40204;SDS011;26963;42.666;23.366;2023-02-28T01:52:51;23.48;;;17.35;;
40204;SDS011;26963;42.666;23.366;2023-02-28T01:55:20;29.00;;;22.35;;
40204;SDS011;26963;42.666;23.366;2023-02-28T01:57:49;26.73;;;17.83;;
40204;SDS011;26963;42.666;23.366;2023-02-28T02:00:18;20.92;;;16.98;;
40204;SDS011;26963;42.666;23.366;2023-02-28T02:02:49;22.60;;;16.92;;
40204;SDS011;26963;42.666;23.366;2023-02-28T02:05:19;23.98;;;17.10;;
40204;SDS011;26963;42.666;23.366;2023-02-28T02:07:48;26.17;;;19.63;;
40204;SDS011;26963;42.666;23.366;2023-02-28T02:10:20;21.90;;;17.85;;
40204;SDS011;26963;42.666;23.366;2023-02-28T02:35:26;27.20;;;20.67;;
40204;SDS011;26963;42.666;23.366;2023-02-28T02:48:59;25.27;;;19.42;;
40204;SDS011;26963;42.666;23.366;2023-02-28T02:51:29;25.88;;;19.38;;
40204;SDS011;26963;42.666;23.366;2023-02-28T02:54:19;25.33;;;18.50;;
40204;SDS011;26963;42.666;23.366;2023-02-28T02:56:46;25.10;;;17.98;;
40204;SDS011;26963;42.666;23.366;2023-02-28T02:59:14;25.45;;;18.70;;
40204;SDS011;26963;42.666;23.366;2023-02-28T03:01:46;24.00;;;17.60;;
40204;SDS011;26963;42.666;23.366;2023-02-28T03:04:20;22.80;;;18.58;;
40204;SDS011;26963;42.666;23.366;2023-02-28T03:06:48;25.40;;;17.10;;
40204;SDS011;26963;42.666;23.366;2023-02-28T03:09:22;26.00;;;18.85;;
40204;SDS011;26963;42.666;23.366;2023-02-28T03:11:49;27.27;;;19.20;;
40204;SDS011;26963;42.666;23.366;2023-02-28T03:14:35;25.80;;;19.23;;
40204;SDS011;26963;42.666;23.366;2023-02-28T03:30:51;30.65;;;22.98;;
40204;SDS011;26963;42.666;23.366;2023-02-28T03:33:24;28.55;;;21.95;;
40204;SDS011;26963;42.666;23.366;2023-02-28T03:35:55;33.28;;;24.15;;
40204;SDS011;26963;42.666;23.366;2023-02-28T03:38:29;41.78;;;27.88;;
40204;SDS011;26963;42.666;23.366;2023-02-28T03:41:12;38.97;;;25.38;;
40204;SDS011;26963;42.666;23.366;2023-02-28T03:43:41;42.33;;;26.73;;
40204;SDS011;26963;42.666;23.366;2023-02-28T03:46:12;36.78;;;26.30;;
40204;SDS011;26963;42.666;23.366;2023-02-28T03:48:44;38.88;;;26.65;;
40204;SDS011;26963;42.666;23.366;2023-02-28T03:51:15;36.95;;;25.25;;
40204;SDS011;26963;42.666;23.366;2023-02-28T03:53:45;41.33;;;26.33;;
40204;SDS011;26963;42.666;23.366;2023-02-28T03:56:17;44.17;;;26.42;;
40204;SDS011;26963;42.666;23.366;2023-02-28T04:01:30;44.65;;;25.38;;
40204;SDS011;26963;42.666;23.366;2023-02-28T04:04:01;36.60;;;26.27;;
40204;SDS011;26963;42.666;23.366;2023-02-28T04:06:30;41.17;;;25.38;;
40204;SDS011;26963;42.666;23.366;2023-02-28T04:08:57;37.08;;;26.67;;
40204;SDS011;26963;42.666;23.366;2023-02-28T04:11:32;36.97;;;25.73;;
40204;SDS011;26963;42.666;23.366;2023-02-28T04:14:03;37.33;;;24.08;;
40204;SDS011;26963;42.666;23.366;2023-02-28T04:16:30;36.78;;;24.50;;
40204;SDS011;26963;42.666;23.366;2023-02-28T04:18:57;34.90;;;23.58;;
40204;SDS011;26963;42.666;23.366;2023-02-28T04:21:31;34.83;;;24.67;;
40204;SDS011;26963;42.666;23.366;2023-02-28T04:23:58;42.22;;;25.98;;
40204;SDS011;26963;42.666;23.366;2023-02-28T04:26:28;41.60;;;25.13;;
40204;SDS011;26963;42.666;23.366;2023-02-28T04:28:55;36.03;;;24.27;;
40204;SDS011;26963;42.666;23.366;2023-02-28T04:31:21;38.03;;;25.60;;
40204;SDS011;26963;42.666;23.366;2023-02-28T04:33:49;34.28;;;23.90;;
40204;SDS011;26963;42.666;23.366;2023-02-28T04:36:14;33.58;;;23.52;;
40204;SDS011;26963;42.666;23.366;2023-02-28T04:38:43;40.42;;;26.48;;
40204;SDS011;26963;42.666;23.366;2023-02-28T04:41:10;43.85;;;27.45;;
40204;SDS011;26963;42.666;23.366;2023-02-28T04:43:36;37.90;;;24.60;;
40204;SDS011;26963;42.666;23.366;2023-02-28T04:46:02;39.05;;;25.00;;
40204;SDS011;26963;42.666;23.366;2023-02-28T04:48:30;37.83;;;24.27;;
40204;SDS011;26963;42.666;23.366;2023-02-28T04:51:00;35.03;;;24.48;;
40204;SDS011;26963;42.666;23.366;2023-02-28T04:53:27;39.00;;;26.48;;
40204;SDS011;26963;42.666;23.366;2023-02-28T04:55:54;35.20;;;25.45;;
40204;SDS011;26963;42.666;23.366;2023-02-28T04:58:20;38.10;;;26.23;;
40204;SDS011;26963;42.666;23.366;2023-02-28T05:00:48;44.40;;;28.38;;
40204;SDS011;26963;42.666;23.366;2023-02-28T05:03:13;43.85;;;27.83;;
40204;SDS011;26963;42.666;23.366;2023-02-28T05:05:39;47.55;;;31.33;;
40204;SDS011;26963;42.666;23.366;2023-02-28T05:08:04;58.85;;;33.20;;
40204;SDS011;26963;42.666;23.366;2023-02-28T05:10:30;52.55;;;32.42;;
40204;SDS011;26963;42.666;23.366;2023-02-28T05:12:59;54.47;;;32.05;;
40204;SDS011;26963;42.666;23.366;2023-02-28T05:15:25;51.40;;;31.92;;
40204;SDS011;26963;42.666;23.366;2023-02-28T05:17:50;52.40;;;31.10;;
40204;SDS011;26963;42.666;23.366;2023-02-28T05:20:16;47.22;;;31.48;;
40204;SDS011;26963;42.666;23.366;2023-02-28T05:22:42;47.78;;;32.15;;
40204;SDS011;26963;42.666;23.366;2023-02-28T05:25:12;51.03;;;32.50;;
40204;SDS011;26963;42.666;23.366;2023-02-28T05:27:41;50.38;;;31.30;;
40204;SDS011;26963;42.666;23.366;2023-02-28T05:30:07;47.47;;;31.13;;
40204;SDS011;26963;42.666;23.366;2023-02-28T05:32:36;46.38;;;30.33;;
40204;SDS011;26963;42.666;23.366;2023-02-28T05:35:02;45.08;;;29.60;;
40204;SDS011;26963;42.666;23.366;2023-02-28T05:37:29;45.10;;;30.13;;
40204;SDS011;26963;42.666;23.366;2023-02-28T05:39:54;44.58;;;29.08;;
40204;SDS011;26963;42.666;23.366;2023-02-28T05:42:20;43.63;;;28.50;;
40204;SDS011;26963;42.666;23.366;2023-02-28T05:44:46;46.75;;;26.33;;
40204;SDS011;26963;42.666;23.366;2023-02-28T05:47:11;46.17;;;27.38;;
40204;SDS011;26963;42.666;23.366;2023-02-28T05:49:40;40.72;;;27.63;;
40204;SDS011;26963;42.666;23.366;2023-02-28T05:52:06;41.08;;;26.95;;
40204;SDS011;26963;42.666;23.366;2023-02-28T05:54:32;47.20;;;29.25;;
40204;SDS011;26963;42.666;23.366;2023-02-28T05:56:57;44.13;;;28.63;;
40204;SDS011;26963;42.666;23.366;2023-02-28T05:59:23;50.38;;;31.90;;
40204;SDS011;26963;42.666;23.366;2023-02-28T06:01:49;49.55;;;31.90;;
40204;SDS011;26963;42.666;23.366;2023-02-28T06:04:15;46.83;;;29.98;;
40204;SDS011;26963;42.666;23.366;2023-02-28T06:06:47;53.05;;;32.35;;
40204;SDS011;26963;42.666;23.366;2023-02-28T06:09:14;59.35;;;33.17;;
40204;SDS011;26963;42.666;23.366;2023-02-28T06:11:39;55.55;;;33.03;;
40204;SDS011;26963;42.666;23.366;2023-02-28T06:14:05;49.85;;;31.70;;
40204;SDS011;26963;42.666;23.366;2023-02-28T06:16:32;50.15;;;33.55;;
40204;SDS011;26963;42.666;23.366;2023-02-28T06:19:01;55.80;;;34.83;;
40204;SDS011;26963;42.666;23.366;2023-02-28T06:21:28;52.75;;;33.60;;
40204;SDS011;26963;42.666;23.366;2023-02-28T06:23:55;51.85;;;33.22;;
40204;SDS011;26963;42.666;23.366;2023-02-28T06:26:21;52.58;;;34.45;;
40204;SDS011;26963;42.666;23.366;2023-02-28T06:28:47;50.53;;;33.58;;
40204;SDS011;26963;42.666;23.366;2023-02-28T06:31:15;46.67;;;32.67;;
40204;SDS011;26963;42.666;23.366;2023-02-28T06:33:43;52.42;;;34.15;;
40204;SDS011;26963;42.666;23.366;2023-02-28T06:36:10;49.70;;;33.35;;
40204;SDS011;26963;42.666;23.366;2023-02-28T06:38:38;49.22;;;31.92;;
40204;SDS011;26963;42.666;23.366;2023-02-28T06:41:04;46.92;;;30.60;;
40204;SDS011;26963;42.666;23.366;2023-02-28T06:43:32;54.03;;;30.88;;
40204;SDS011;26963;42.666;23.366;2023-02-28T06:46:00;48.65;;;31.25;;
40204;SDS011;26963;42.666;23.366;2023-02-28T06:48:27;50.58;;;32.53;;
40204;SDS011;26963;42.666;23.366;2023-02-28T06:51:01;51.85;;;33.03;;
40204;SDS011;26963;42.666;23.366;2023-02-28T06:53:30;54.03;;;32.42;;
40204;SDS011;26963;42.666;23.366;2023-02-28T06:55:56;46.85;;;33.10;;
40204;SDS011;26963;42.666;23.366;2023-02-28T06:58:22;42.90;;;30.65;;
40204;SDS011;26963;42.666;23.366;2023-02-28T07:00:50;41.90;;;29.58;;
40204;SDS011;26963;42.666;23.366;2023-02-28T07:03:19;39.77;;;30.07;;
40204;SDS011;26963;42.666;23.366;2023-02-28T07:05:45;43.42;;;29.35;;
40204;SDS011;26963;42.666;23.366;2023-02-28T07:08:10;35.45;;;27.73;;
40204;SDS011;26963;42.666;23.366;2023-02-28T07:10:37;39.17;;;28.55;;
40204;SDS011;26963;42.666;23.366;2023-02-28T07:13:03;35.85;;;27.60;;
40204;SDS011;26963;42.666;23.366;2023-02-28T07:15:30;34.67;;;27.20;;
40204;SDS011;26963;42.666;23.366;2023-02-28T07:17:56;37.20;;;28.30;;
40204;SDS011;26963;42.666;23.366;2023-02-28T07:20:24;35.38;;;27.42;;
40204;SDS011;26963;42.666;23.366;2023-02-28T07:22:50;35.58;;;26.98;;
40204;SDS011;26963;42.666;23.366;2023-02-28T07:25:28;35.70;;;26.98;;
40204;SDS011;26963;42.666;23.366;2023-02-28T07:27:54;33.63;;;25.70;;
40204;SDS011;26963;42.666;23.366;2023-02-28T07:30:21;32.00;;;25.30;;
40204;SDS011;26963;42.666;23.366;2023-02-28T07:32:46;32.88;;;25.55;;
40204;SDS011;26963;42.666;23.366;2023-02-28T07:35:12;32.33;;;24.33;;
40204;SDS011;26963;42.666;23.366;2023-02-28T07:37:40;34.20;;;25.52;;
40204;SDS011;26963;42.666;23.366;2023-02-28T07:40:07;32.00;;;24.60;;
40204;SDS011;26963;42.666;23.366;2023-02-28T07:42:35;31.65;;;23.83;;
40204;SDS011;26963;42.666;23.366;2023-02-28T07:45:01;33.63;;;24.35;;
40204;SDS011;26963;42.666;23.366;2023-02-28T07:47:28;30.33;;;23.67;;
40204;SDS011;26963;42.666;23.366;2023-02-28T07:49:55;29.33;;;24.77;;
40204;SDS011;26963;42.666;23.366;2023-02-28T07:52:20;28.95;;;22.88;;
40204;SDS011;26963;42.666;23.366;2023-02-28T07:54:46;28.17;;;23.55;;
40204;SDS011;26963;42.666;23.366;2023-02-28T07:57:11;31.67;;;23.20;;
40204;SDS011;26963;42.666;23.366;2023-02-28T07:59:37;30.80;;;23.08;;
40204;SDS011;26963;42.666;23.366;2023-02-28T08:02:02;30.35;;;23.77;;
40204;SDS011;26963;42.666;23.366;2023-02-28T08:04:31;34.97;;;23.92;;
40204;SDS011;26963;42.666;23.366;2023-02-28T08:06:57;29.50;;;23.60;;
40204;SDS011;26963;42.666;23.366;2023-02-28T08:09:22;28.35;;;22.50;;
40204;SDS011;26963;42.666;23.366;2023-02-28T08:11:48;32.50;;;23.33;;
40204;SDS011;26963;42.666;23.366;2023-02-28T08:14:14;32.83;;;24.70;;
40204;SDS011;26963;42.666;23.366;2023-02-28T08:16:39;33.38;;;24.35;;
40204;SDS011;26963;42.666;23.366;2023-02-28T08:19:05;32.58;;;23.92;;
40204;SDS011;26963;42.666;23.366;2023-02-28T08:21:30;36.25;;;24.77;;
40204;SDS011;26963;42.666;23.366;2023-02-28T08:23:56;32.08;;;24.88;;
40204;SDS011;26963;42.666;23.366;2023-02-28T08:26:22;31.67;;;24.48;;
40204;SDS011;26963;42.666;23.366;2023-02-28T08:28:47;32.40;;;24.10;;
40204;SDS011;26963;42.666;23.366;2023-02-28T08:31:14;36.42;;;26.48;;
40204;SDS011;26963;42.666;23.366;2023-02-28T08:33:41;31.88;;;25.27;;
40204;SDS011;26963;42.666;23.366;2023-02-28T08:36:07;39.38;;;27.13;;
40204;SDS011;26963;42.666;23.366;2023-02-28T08:38:34;46.92;;;34.95;;
40204;SDS011;26963;42.666;23.366;2023-02-28T08:41:01;41.95;;;28.05;;
40204;SDS011;26963;42.666;23.366;2023-02-28T08:43:33;31.83;;;22.80;;
40204;SDS011;26963;42.666;23.366;2023-02-28T08:45:59;35.17;;;20.10;;
40204;SDS011;26963;42.666;23.366;2023-02-28T08:48:26;29.70;;;20.02;;
40204;SDS011;26963;42.666;23.366;2023-02-28T08:50:56;29.98;;;17.85;;
40204;SDS011;26963;42.666;23.366;2023-02-28T08:53:26;32.47;;;20.67;;
40204;SDS011;26963;42.666;23.366;2023-02-28T08:55:56;36.13;;;21.58;;
40204;SDS011;26963;42.666;23.366;2023-02-28T08:58:25;32.78;;;18.98;;
40204;SDS011;26963;42.666;23.366;2023-02-28T09:00:52;31.65;;;18.73;;
40204;SDS011;26963;42.666;23.366;2023-02-28T09:03:17;25.88;;;17.50;;
40204;SDS011;26963;42.666;23.366;2023-02-28T09:05:56;27.05;;;17.00;;
40204;SDS011;26963;42.666;23.366;2023-02-28T09:08:23;32.47;;;19.02;;
40204;SDS011;26963;42.666;23.366;2023-02-28T09:10:50;24.60;;;18.92;;
40204;SDS011;26963;42.666;23.366;2023-02-28T09:13:19;26.92;;;18.25;;
40204;SDS011;26963;42.666;23.366;2023-02-28T09:15:45;31.65;;;19.60;;
40204;SDS011;26963;42.666;23.366;2023-02-28T09:18:11;31.77;;;19.50;;
40204;SDS011;26963;42.666;23.366;2023-02-28T09:20:37;28.27;;;19.02;;
40204;SDS011;26963;42.666;23.366;2023-02-28T09:23:05;30.95;;;19.45;;
40204;SDS011;26963;42.666;23.366;2023-02-28T09:25:31;34.60;;;20.55;;
40204;SDS011;26963;42.666;23.366;2023-02-28T09:27:57;24.30;;;18.92;;
40204;SDS011;26963;42.666;23.366;2023-02-28T09:30:22;27.25;;;18.67;;
40204;SDS011;26963;42.666;23.366;2023-02-28T09:32:48;25.00;;;18.23;;
40204;SDS011;26963;42.666;23.366;2023-02-28T09:35:17;25.00;;;18.00;;
40204;SDS011;26963;42.666;23.366;2023-02-28T09:37:44;29.25;;;18.23;;
40204;SDS011;26963;42.666;23.366;2023-02-28T09:40:10;29.38;;;18.38;;
40204;SDS011;26963;42.666;23.366;2023-02-28T09:42:37;27.45;;;17.98;;
40204;SDS011;26963;42.666;23.366;2023-02-28T09:45:10;29.50;;;19.15;;
40204;SDS011;26963;42.666;23.366;2023-02-28T09:47:44;28.23;;;17.48;;
40204;SDS011;26963;42.666;23.366;2023-02-28T09:50:22;27.27;;;17.20;;
40204;SDS011;26963;42.666;23.366;2023-02-28T09:52:58;25.38;;;17.92;;
40204;SDS011;26963;42.666;23.366;2023-02-28T09:55:29;27.92;;;17.30;;
40204;SDS011;26963;42.666;23.366;2023-02-28T09:58:02;26.65;;;16.92;;
40204;SDS011;26963;42.666;23.366;2023-02-28T10:00:36;31.33;;;17.63;;
40204;SDS011;26963;42.666;23.366;2023-02-28T10:08:23;21.15;;;14.90;;
40204;SDS011;26963;42.666;23.366;2023-02-28T10:10:55;25.00;;;15.70;;
40204;SDS011;26963;42.666;23.366;2023-02-28T10:13:36;25.52;;;15.00;;
40204;SDS011;26963;42.666;23.366;2023-02-28T10:16:16;22.33;;;15.40;;
40204;SDS011;26963;42.666;23.366;2023-02-28T10:18:52;26.13;;;14.80;;
40204;SDS011;26963;42.666;23.366;2023-02-28T10:21:26;21.27;;;14.07;;
40204;SDS011;26963;42.666;23.366;2023-02-28T10:24:16;24.33;;;13.30;;
40204;SDS011;26963;42.666;23.366;2023-02-28T10:26:48;22.48;;;14.73;;
40204;SDS011;26963;42.666;23.366;2023-02-28T10:29:14;19.13;;;13.27;;
40204;SDS011;26963;42.666;23.366;2023-02-28T10:31:40;27.05;;;13.52;;
40204;SDS011;26963;42.666;23.366;2023-02-28T10:34:07;24.95;;;13.68;;
40204;SDS011;26963;42.666;23.366;2023-02-28T10:36:36;27.92;;;13.82;;
40204;SDS011;26963;42.666;23.366;2023-02-28T10:39:16;21.02;;;12.18;;
40204;SDS011;26963;42.666;23.366;2023-02-28T10:42:00;25.35;;;13.30;;
40204;SDS011;26963;42.666;23.366;2023-02-28T10:44:26;28.63;;;12.15;;
40204;SDS011;26963;42.666;23.366;2023-02-28T10:46:54;20.75;;;13.38;;
40204;SDS011;26963;42.666;23.366;2023-02-28T10:49:22;21.42;;;12.82;;
40204;SDS011;26963;42.666;23.366;2023-02-28T10:51:54;21.67;;;12.88;;
40204;SDS011;26963;42.666;23.366;2023-02-28T10:54:29;24.65;;;13.40;;
40204;SDS011;26963;42.666;23.366;2023-02-28T10:57:09;21.40;;;12.93;;
40204;SDS011;26963;42.666;23.366;2023-02-28T10:59:50;23.65;;;12.48;;
40204;SDS011;26963;42.666;23.366;2023-02-28T11:02:32;24.13;;;13.05;;
40204;SDS011;26963;42.666;23.366;2023-02-28T11:04:59;29.90;;;15.02;;
40204;SDS011;26963;42.666;23.366;2023-02-28T11:07:25;25.02;;;13.70;;
40204;SDS011;26963;42.666;23.366;2023-02-28T11:09:56;24.00;;;13.43;;
40204;SDS011;26963;42.666;23.366;2023-02-28T11:12:31;22.27;;;14.00;;
40204;SDS011;26963;42.666;23.366;2023-02-28T11:15:18;23.73;;;13.70;;
40204;SDS011;26963;42.666;23.366;2023-02-28T11:22:48;23.10;;;13.48;;
40204;SDS011;26963;42.666;23.366;2023-02-28T11:28:00;24.35;;;13.45;;
40204;SDS011;26963;42.666;23.366;2023-02-28T11:30:34;26.35;;;12.73;;
40204;SDS011;26963;42.666;23.366;2023-02-28T11:36:01;22.00;;;14.30;;
40204;SDS011;26963;42.666;23.366;2023-02-28T11:38:37;24.40;;;13.88;;
40204;SDS011;26963;42.666;23.366;2023-02-28T11:44:03;25.38;;;15.38;;
40204;SDS011;26963;42.666;23.366;2023-02-28T11:51:47;30.05;;;16.42;;
40204;SDS011;26963;42.666;23.366;2023-02-28T11:57:03;26.27;;;15.05;;
40204;SDS011;26963;42.666;23.366;2023-02-28T11:59:56;28.05;;;15.60;;
40204;SDS011;26963;42.666;23.366;2023-02-28T12:02:35;27.52;;;15.93;;
40204;SDS011;26963;42.666;23.366;2023-02-28T12:08:26;30.15;;;15.45;;
40204;SDS011;26963;42.666;23.366;2023-02-28T12:11:25;25.40;;;15.73;;
40204;SDS011;26963;42.666;23.366;2023-02-28T12:14:05;27.95;;;15.48;;
40204;SDS011;26963;42.666;23.366;2023-02-28T12:24:38;23.00;;;14.13;;
40204;SDS011;26963;42.666;23.366;2023-02-28T12:27:24;26.67;;;16.05;;
40204;SDS011;26963;42.666;23.366;2023-02-28T12:29:55;27.63;;;15.32;;
40204;SDS011;26963;42.666;23.366;2023-02-28T12:32:31;21.98;;;14.30;;
40204;SDS011;26963;42.666;23.366;2023-02-28T12:37:46;24.30;;;15.38;;
40204;SDS011;26963;42.666;23.366;2023-02-28T12:40:20;24.52;;;14.68;;
40204;SDS011;26963;42.666;23.366;2023-02-28T12:43:04;25.73;;;14.45;;
40204;SDS011;26963;42.666;23.366;2023-02-28T12:48:13;19.80;;;12.50;;
40204;SDS011;26963;42.666;23.366;2023-02-28T12:50:42;25.15;;;13.60;;
40204;SDS011;26963;42.666;23.366;2023-02-28T13:09:57;25.95;;;13.68;;
40204;SDS011;26963;42.666;23.366;2023-02-28T13:12:25;23.02;;;13.95;;
40204;SDS011;26963;42.666;23.366;2023-02-28T13:15:00;25.90;;;14.48;;
40204;SDS011;26963;42.666;23.366;2023-02-28T13:17:38;31.88;;;15.55;;
40204;SDS011;26963;42.666;23.366;2023-02-28T13:20:14;24.98;;;14.90;;
40204;SDS011;26963;42.666;23.366;2023-02-28T13:22:43;27.40;;;15.82;;
40204;SDS011;26963;42.666;23.366;2023-02-28T13:27:54;26.85;;;14.98;;
40204;SDS011;26963;42.666;23.366;2023-02-28T13:35:45;81.82;;;51.38;;
40204;SDS011;26963;42.666;23.366;2023-02-28T13:38:16;20.73;;;13.23;;
40204;SDS011;26963;42.666;23.366;2023-02-28T13:40:47;18.90;;;11.70;;
40204;SDS011;26963;42.666;23.366;2023-02-28T13:43:13;20.10;;;12.50;;
40204;SDS011;26963;42.666;23.366;2023-02-28T13:46:10;21.33;;;14.68;;
40204;SDS011;26963;42.666;23.366;2023-02-28T13:48:33;26.17;;;14.57;;
40204;SDS011;26963;42.666;23.366;2023-02-28T13:50:58;30.08;;;15.60;;
40204;SDS011;26963;42.666;23.366;2023-02-28T13:53:28;28.27;;;14.57;;
40204;SDS011;26963;42.666;23.366;2023-02-28T13:56:35;18.98;;;12.05;;
40204;SDS011;26963;42.666;23.366;2023-02-28T14:07:26;29.38;;;14.68;;
40204;SDS011;26963;42.666;23.366;2023-02-28T14:10:01;28.30;;;12.73;;
40204;SDS011;26963;42.666;23.366;2023-02-28T14:15:39;25.10;;;13.32;;
40204;SDS011;26963;42.666;23.366;2023-02-28T14:18:13;27.80;;;13.25;;
40204;SDS011;26963;42.666;23.366;2023-02-28T14:20:46;19.55;;;11.75;;
40204;SDS011;26963;42.666;23.366;2023-02-28T14:28:56;22.20;;;12.75;;
40204;SDS011;26963;42.666;23.366;2023-02-28T14:31:40;19.05;;;11.90;;
40204;SDS011;26963;42.666;23.366;2023-02-28T14:34:30;22.02;;;13.57;;
40204;SDS011;26963;42.666;23.366;2023-02-28T14:37:03;23.02;;;12.25;;
40204;SDS011;26963;42.666;23.366;2023-02-28T14:39:29;22.65;;;13.25;;
40204;SDS011;26963;42.666;23.366;2023-02-28T14:41:56;22.50;;;12.38;;
40204;SDS011;26963;42.666;23.366;2023-02-28T14:44:28;25.55;;;11.80;;
40204;SDS011;26963;42.666;23.366;2023-02-28T14:47:00;22.05;;;11.38;;
40204;SDS011;26963;42.666;23.366;2023-02-28T14:49:38;21.05;;;11.25;;
40204;SDS011;26963;42.666;23.366;2023-02-28T14:54:42;20.88;;;11.73;;
40204;SDS011;26963;42.666;23.366;2023-02-28T15:02:46;21.92;;;12.40;;
40204;SDS011;26963;42.666;23.366;2023-02-28T15:07:47;23.52;;;11.38;;
40204;SDS011;26963;42.666;23.366;2023-02-28T15:10:24;22.83;;;11.60;;
40204;SDS011;26963;42.666;23.366;2023-02-28T15:13:02;22.58;;;12.05;;
40204;SDS011;26963;42.666;23.366;2023-02-28T15:20:56;21.90;;;10.63;;
40204;SDS011;26963;42.666;23.366;2023-02-28T15:23:28;21.60;;;10.20;;
40204;SDS011;26963;42.666;23.366;2023-02-28T15:25:55;19.55;;;9.48;;
40204;SDS011;26963;42.666;23.366;2023-02-28T15:28:21;17.60;;;9.23;;
40204;SDS011;26963;42.666;23.366;2023-02-28T15:30:53;19.85;;;10.13;;
40204;SDS011;26963;42.666;23.366;2023-02-28T15:33:32;19.33;;;11.07;;
40204;SDS011;26963;42.666;23.366;2023-02-28T15:38:36;17.42;;;10.25;;
40204;SDS011;26963;42.666;23.366;2023-02-28T15:41:01;21.42;;;10.15;;
40204;SDS011;26963;42.666;23.366;2023-02-28T15:43:36;18.80;;;9.45;;
40204;SDS011;26963;42.666;23.366;2023-02-28T15:46:06;18.17;;;9.02;;
40204;SDS011;26963;42.666;23.366;2023-02-28T15:48:42;15.07;;;8.90;;
40204;SDS011;26963;42.666;23.366;2023-02-28T15:51:20;17.50;;;8.85;;
40204;SDS011;26963;42.666;23.366;2023-02-28T15:56:32;16.73;;;9.55;;
40204;SDS011;26963;42.666;23.366;2023-02-28T15:59:04;14.05;;;8.80;;
40204;SDS011;26963;42.666;23.366;2023-02-28T16:01:33;13.95;;;9.65;;
40204;SDS011;26963;42.666;23.366;2023-02-28T16:04:01;14.88;;;8.80;;
40204;SDS011;26963;42.666;23.366;2023-02-28T16:06:35;12.15;;;8.40;;
40204;SDS011;26963;42.666;23.366;2023-02-28T16:09:01;13.80;;;8.73;;
40204;SDS011;26963;42.666;23.366;2023-02-28T16:11:28;13.80;;;9.85;;
40204;SDS011;26963;42.666;23.366;2023-02-28T16:13:55;13.02;;;10.25;;
40204;SDS011;26963;42.666;23.366;2023-02-28T16:16:23;12.52;;;9.02;;
40204;SDS011;26963;42.666;23.366;2023-02-28T16:18:51;16.70;;;9.82;;
40204;SDS011;26963;42.666;23.366;2023-02-28T16:21:17;14.15;;;9.07;;
40204;SDS011;26963;42.666;23.366;2023-02-28T16:23:42;15.05;;;9.43;;
40204;SDS011;26963;42.666;23.366;2023-02-28T16:26:08;14.55;;;9.40;;
40204;SDS011;26963;42.666;23.366;2023-02-28T16:28:43;13.68;;;8.90;;
40204;SDS011;26963;42.666;23.366;2023-02-28T16:31:09;14.32;;;8.98;;
40204;SDS011;26963;42.666;23.366;2023-02-28T16:33:41;13.18;;;8.57;;
40204;SDS011;26963;42.666;23.366;2023-02-28T16:36:20;12.27;;;8.30;;
40204;SDS011;26963;42.666;23.366;2023-02-28T16:38:48;14.93;;;8.73;;
40204;SDS011;26963;42.666;23.366;2023-02-28T16:41:16;12.25;;;8.25;;
40204;SDS011;26963;42.666;23.366;2023-02-28T16:46:19;11.25;;;7.95;;
40204;SDS011;26963;42.666;23.366;2023-02-28T16:48:46;14.32;;;8.00;;
40204;SDS011;26963;42.666;23.366;2023-02-28T16:51:16;10.93;;;6.72;;
40204;SDS011;26963;42.666;23.366;2023-02-28T16:53:43;10.40;;;7.82;;
40204;SDS011;26963;42.666;23.366;2023-02-28T16:56:19;13.00;;;7.63;;
40204;SDS011;26963;42.666;23.366;2023-02-28T16:58:47;9.93;;;6.93;;
40204;SDS011;26963;42.666;23.366;2023-02-28T17:01:14;11.15;;;6.88;;
40204;SDS011;26963;42.666;23.366;2023-02-28T17:03:40;10.30;;;6.97;;